Uni Wealth — VRFV4 — position and weather

sailwx.info

Track history (hours):
 
Tides and Currents Weather Stations Pressure Air Temp Water Temp Dewpoint Dewpoint Depression Visibility Wind Speed Wind Dir Waves Ship Positions

Uni Wealth

Last reported at 2014-Dec-23 21:14 UTC. Time now 2015-Jan-25 03:56 UTC.
Position N 48°12' W 125°37'.
Warning: this ship's position is 32 days out of date.

Length 170 m; draft 9.9 m.

Type: Cargo ship. MMSI: 477621200.

Date/timePositionNaut miles runAvg speedWind from/ knotsBaromVisibWave heightAir tempDewpointWater temp
2014-Dec-23 21:14N 48°12' W 125°37'2511.6
2014-Dec-23 19:06N 48°26' W 125°06'711.5
2014-Dec-23 18:31N 48°31' W 125°00'1111.5
2014-Dec-23 17:33N 48°30' W 124°43'1312.8
2014-Dec-23 16:33N 48°26' W 124°25'1312.9
2014-Dec-23 15:33N 48°21' W 124°07'1212.4
2014-Dec-23 14:33N 48°17' W 123°49'1211.5
2014-Dec-23 13:31N 48°16' W 123°32'1010.3
2014-Dec-23 12:33N 48°23' W 123°22'7 7.5
2014-Dec-23 11:33N 48°27' W 123°12'1110.6
2014-Dec-23 10:33N 48°37' W 123°14'9 8.8
2014-Dec-23 09:33N 48°45' W 123°07'7 7.4
2014-Dec-23 08:33N 48°52' W 123°06'1212.3
2014-Dec-23 07:33N 49°00' W 123°19'1211.8
2014-Dec-23 06:33N 49°12' W 123°22'1111.1
2014-Dec-23 05:33N 49°19' W 123°09'2 1.8
2014-Dec-23 04:31N 49°18' W 123°06'0 0.0
2014-Dec-23 03:31N 49°18' W 123°06'0 0.0
2014-Dec-23 02:31N 49°18' W 123°06'0 0.0
2014-Dec-23 01:31N 49°18' W 123°06'0 0.1
2014-Dec-23 00:31N 49°18' W 123°06'0 0.0
2014-Dec-22 23:31N 49°18' W 123°06'0 0.0
2014-Dec-22 22:31N 49°18' W 123°06'0 0.0
2014-Dec-22 21:31N 49°18' W 123°06'0 0.0
2014-Dec-22 20:31N 49°18' W 123°06'0 0.0
2014-Dec-22 19:31N 49°18' W 123°06'0 0.1
2014-Dec-22 18:31N 49°18' W 123°06'0 0.0
2014-Dec-22 17:31N 49°18' W 123°06'0 0.1
2014-Dec-22 16:31N 49°18' W 123°06'0 0.1
2014-Dec-22 15:31N 49°18' W 123°06'0 0.1
2014-Dec-22 14:31N 49°18' W 123°06'0 0.1
2014-Dec-22 13:31N 49°18' W 123°06'0 0.0
2014-Dec-22 12:31N 49°18' W 123°06'0 0.0
2014-Dec-22 11:31N 49°18' W 123°06'0 0.2
2014-Dec-22 10:31N 49°18' W 123°06'0 0.2
2014-Dec-22 09:31N 49°18' W 123°06'0 0.1
2014-Dec-22 08:31N 49°18' W 123°06'0 0.0
2014-Dec-22 07:31N 49°18' W 123°06'0 0.0
2014-Dec-22 06:31N 49°18' W 123°06'0 0.0
2014-Dec-22 05:31N 49°18' W 123°06'1 1.2
2014-Dec-22 04:33N 49°18' W 123°05'1 0.8
2014-Dec-22 03:32N 49°18' W 123°04'0 0.0
2014-Dec-22 02:32N 49°18' W 123°04'0 0.0
2014-Dec-22 01:32N 49°18' W 123°04'0 0.0
2014-Dec-22 00:32N 49°18' W 123°04'0 0.0
2014-Dec-21 23:32N 49°18' W 123°04'0 0.0
2014-Dec-21 22:32N 49°18' W 123°04'0 0.0
2014-Dec-21 21:32N 49°18' W 123°04'0 0.0
2014-Dec-21 20:32N 49°18' W 123°04'0 0.0
2014-Dec-21 19:29N 49°18' W 123°04'0 0.0
2014-Dec-21 18:32N 49°18' W 123°04'0 0.0
2014-Dec-21 17:32N 49°18' W 123°04'0 0.0
2014-Dec-21 16:32N 49°18' W 123°04'0 0.0
2014-Dec-21 15:32N 49°18' W 123°04'0 0.0
2014-Dec-21 14:32N 49°18' W 123°04'0 0.0
2014-Dec-21 13:32N 49°18' W 123°04'0 0.0
2014-Dec-21 12:32N 49°18' W 123°04'0 0.0
2014-Dec-21 11:32N 49°18' W 123°04'0 0.0
2014-Dec-21 10:32N 49°18' W 123°04'0 0.0
2014-Dec-21 09:32N 49°18' W 123°04'0 0.0
2014-Dec-21 08:32N 49°18' W 123°04'0 0.0
2014-Dec-21 07:32N 49°18' W 123°04'0 0.0
2014-Dec-21 06:32N 49°18' W 123°04'0 0.0
2014-Dec-21 05:32N 49°18' W 123°04'0 0.0
2014-Dec-21 04:32N 49°18' W 123°04'0 0.0
2014-Dec-21 03:32N 49°18' W 123°04'0 0.0
2014-Dec-21 02:32N 49°18' W 123°04'0 0.0
2014-Dec-21 01:26N 49°18' W 123°04'0 0.0
2014-Dec-21 00:32N 49°18' W 123°04'0 0.0
2014-Dec-20 23:32N 49°18' W 123°04'0 0.0
2014-Dec-20 22:32N 49°18' W 123°04'0 0.0
2014-Dec-20 21:29N 49°18' W 123°04'0 0.0
2014-Dec-20 20:32N 49°18' W 123°04'0 0.0
2014-Dec-20 19:29N 49°18' W 123°04'0 0.0
2014-Dec-20 18:32N 49°18' W 123°04'0 0.0
2014-Dec-20 17:32N 49°18' W 123°04'0 0.0
2014-Dec-20 16:29N 49°18' W 123°04'0 0.0
2014-Dec-20 15:32N 49°18' W 123°04'0 0.0
2014-Dec-20 14:32N 49°18' W 123°04'0 0.0
2014-Dec-20 13:32N 49°18' W 123°04'0 0.0
2014-Dec-20 12:32N 49°18' W 123°04'0 0.0
2014-Dec-20 11:32N 49°18' W 123°04'0 0.0
2014-Dec-20 10:32N 49°18' W 123°04'0 0.0
2014-Dec-20 09:32N 49°18' W 123°04'0 0.0
2014-Dec-20 08:32N 49°18' W 123°04'0 0.0
2014-Dec-20 07:33N 49°18' W 123°04'0 0.0
2014-Dec-20 06:33N 49°18' W 123°04'0 0.0
2014-Dec-20 05:33N 49°18' W 123°04'0 0.0
2014-Dec-20 04:33N 49°18' W 123°04'0 0.0
2014-Dec-20 03:33N 49°18' W 123°04'0 0.0
2014-Dec-20 02:33N 49°18' W 123°04'0 0.0
2014-Dec-20 01:33N 49°18' W 123°04'0 0.0
2014-Dec-20 00:33N 49°18' W 123°04'0 0.0
2014-Dec-19 23:33N 49°18' W 123°04'1 0.9
2014-Dec-19 22:33N 49°18' W 123°05'4 4.2
2014-Dec-19 21:31N 49°18' W 123°12'0 0.0
2014-Dec-19 20:31N 49°18' W 123°12'0 0.0
2014-Dec-19 19:31N 49°18' W 123°12'0 0.1
2014-Dec-19 18:31N 49°18' W 123°11'0 0.0
2014-Dec-19 17:31N 49°18' W 123°11'0 0.0
2014-Dec-19 16:31N 49°18' W 123°11'0 0.0
2014-Dec-19 15:31N 49°18' W 123°11'0 0.3
2014-Dec-19 14:28N 49°18' W 123°12'0 0.0
2014-Dec-19 13:31N 49°18' W 123°12'0 0.0
2014-Dec-19 12:31N 49°18' W 123°12'0 0.0
2014-Dec-19 11:31N 49°18' W 123°12'0 0.1
2014-Dec-19 10:31N 49°18' W 123°12'0 0.1
2014-Dec-19 09:31N 49°18' W 123°12'0 0.0
2014-Dec-19 08:31N 49°18' W 123°12'0 0.2
2014-Dec-19 07:31N 49°18' W 123°12'0 0.0
2014-Dec-19 06:31N 49°18' W 123°12'0 0.2
2014-Dec-19 05:31N 49°18' W 123°12'0 0.1
2014-Dec-19 04:31N 49°18' W 123°12'0 0.0
2014-Dec-19 03:31N 49°18' W 123°12'0 0.0
2014-Dec-19 02:31N 49°18' W 123°12'0 0.0
2014-Dec-19 01:31N 49°18' W 123°12'0 0.0
2014-Dec-19 00:31N 49°18' W 123°12'0 0.0
2014-Dec-18 23:31N 49°18' W 123°12'0 0.0
2014-Dec-18 22:31N 49°18' W 123°12'0 0.1
2014-Dec-18 21:31N 49°18' W 123°12'0 0.0
2014-Dec-18 20:31N 49°18' W 123°12'0 0.0
2014-Dec-18 19:31N 49°18' W 123°12'0 0.0
2014-Dec-18 18:31N 49°18' W 123°12'0 0.0
2014-Dec-18 17:31N 49°18' W 123°12'0 0.0
2014-Dec-18 16:31N 49°18' W 123°12'0 0.0
2014-Dec-18 15:31N 49°18' W 123°12'0 0.0
2014-Dec-18 14:31N 49°18' W 123°12'0 0.1
2014-Dec-18 13:31N 49°18' W 123°12'0 0.0
2014-Dec-18 12:31N 49°18' W 123°12'0 0.1
2014-Dec-18 11:31N 49°18' W 123°11'0 0.0
2014-Dec-18 10:31N 49°18' W 123°11'0 0.0
2014-Dec-18 09:31N 49°18' W 123°11'0 0.0
2014-Dec-18 08:31N 49°18' W 123°11'0 0.0
2014-Dec-18 07:31N 49°18' W 123°11'0 0.0
2014-Dec-18 06:31N 49°18' W 123°11'0 0.0
2014-Dec-18 05:31N 49°18' W 123°11'0 0.1
2014-Dec-18 04:31N 49°18' W 123°11'0 0.1
2014-Dec-18 03:28N 49°18' W 123°11'0 0.1
2014-Dec-18 02:31N 49°18' W 123°12'0 0.0
2014-Dec-18 01:31N 49°18' W 123°12'0 0.0
2014-Dec-18 00:31N 49°18' W 123°12'0 0.0
2014-Dec-17 23:31N 49°18' W 123°12'0 0.0
2014-Dec-17 22:31N 49°18' W 123°12'0 0.0
2014-Dec-17 21:31N 49°18' W 123°12'0 0.1
2014-Dec-17 20:31N 49°18' W 123°11'0 0.0
2014-Dec-17 19:31N 49°18' W 123°11'0 0.0
2014-Dec-17 18:31N 49°18' W 123°11'0 0.0
2014-Dec-17 17:31N 49°18' W 123°11'0 0.0
2014-Dec-17 16:31N 49°18' W 123°11'0 0.0
2014-Dec-17 15:31N 49°18' W 123°11'0 0.1
2014-Dec-17 14:31N 49°18' W 123°11'3 3.5
2014-Dec-17 13:33N 49°18' W 123°06'1 1.5
2014-Dec-17 12:33N 49°18' W 123°04'0 0.1
2014-Dec-17 11:33N 49°18' W 123°04'0 0.1
2014-Dec-17 10:33N 49°18' W 123°04'0 0.0
2014-Dec-17 09:33N 49°18' W 123°04'0 0.0
2014-Dec-17 08:33N 49°18' W 123°04'0 0.1
2014-Dec-17 07:33N 49°18' W 123°04'0 0.0
2014-Dec-17 06:33N 49°18' W 123°04'0 0.1
2014-Dec-17 05:33N 49°18' W 123°04'0 0.1
2014-Dec-17 04:33N 49°18' W 123°04'0 0.0
2014-Dec-17 03:33N 49°18' W 123°04'0 0.0
2014-Dec-17 02:33N 49°18' W 123°04'0 0.0
2014-Dec-17 01:33N 49°18' W 123°04'0 0.0
2014-Dec-17 00:33N 49°18' W 123°04'0 0.0
2014-Dec-16 23:33N 49°18' W 123°04'0 0.0
2014-Dec-16 22:33N 49°18' W 123°04'0 0.0
2014-Dec-16 21:33N 49°18' W 123°04'0 0.0
2014-Dec-16 20:33N 49°18' W 123°04'0 0.1
2014-Dec-16 19:33N 49°18' W 123°04'0 0.0
2014-Dec-16 18:33N 49°18' W 123°04'0 0.1
2014-Dec-16 17:33N 49°18' W 123°04'0 0.2
2014-Dec-16 16:33N 49°18' W 123°04'0 0.1
2014-Dec-16 15:33N 49°18' W 123°04'0 0.0
2014-Dec-16 14:33N 49°18' W 123°04'0 0.0
2014-Dec-16 13:33N 49°18' W 123°04'0 0.0
2014-Dec-16 12:33N 49°18' W 123°04'0 0.1
2014-Dec-16 11:33N 49°18' W 123°04'0 0.0
2014-Dec-16 10:33N 49°18' W 123°04'0 0.0
2014-Dec-16 09:33N 49°18' W 123°04'0 0.1
2014-Dec-16 08:33N 49°18' W 123°04'0 0.0
2014-Dec-16 07:33N 49°18' W 123°04'0 0.0
2014-Dec-16 06:33N 49°18' W 123°04'0 0.0
2014-Dec-16 05:33N 49°18' W 123°04'0 0.0
2014-Dec-16 04:21N 49°18' W 123°04'0 0.0
2014-Dec-16 03:30N 49°18' W 123°04'0 0.0
2014-Dec-16 02:30N 49°18' W 123°04'0 0.1
2014-Dec-16 01:06N 49°18' W 123°04'0 0.0
2014-Dec-16 00:06N 49°18' W 123°04'0 0.0
2014-Dec-15 23:33N 49°18' W 123°04'0 0.0
2014-Dec-15 22:33N 49°18' W 123°04'0 0.0
2014-Dec-15 21:33N 49°18' W 123°04'0 0.1
2014-Dec-15 20:33N 49°18' W 123°04'0 0.1
2014-Dec-15 19:30N 49°18' W 123°04'0 0.0
2014-Dec-15 18:33N 49°18' W 123°04'0 0.0
2014-Dec-15 17:33N 49°18' W 123°04'0 0.0
2014-Dec-15 16:33N 49°18' W 123°04'0 0.0
2014-Dec-15 15:33N 49°18' W 123°04'0 0.1
2014-Dec-15 14:33N 49°18' W 123°04'0 0.1
2014-Dec-15 13:33N 49°18' W 123°04'0 0.0
2014-Dec-15 12:33N 49°18' W 123°04'0 0.0
2014-Dec-15 11:33N 49°18' W 123°04'0 0.0
2014-Dec-15 10:33N 49°18' W 123°04'0 0.0
2014-Dec-15 09:33N 49°18' W 123°04'0 0.0
2014-Dec-15 08:33N 49°18' W 123°04'0 0.1
2014-Dec-15 07:33N 49°18' W 123°04'0 0.1
2014-Dec-15 06:33N 49°18' W 123°04'0 0.0
2014-Dec-15 05:33N 49°18' W 123°04'0 0.0
2014-Dec-15 04:33N 49°18' W 123°04'0 0.1
2014-Dec-15 03:33N 49°18' W 123°04'0 0.0
2014-Dec-15 02:33N 49°18' W 123°04'0 0.1
2014-Dec-15 01:33N 49°18' W 123°04'0 0.1
2014-Dec-15 00:33N 49°18' W 123°04'0 0.0
2014-Dec-14 23:33N 49°18' W 123°04'0 0.0
2014-Dec-14 22:33N 49°18' W 123°04'0 0.0
2014-Dec-14 21:33N 49°18' W 123°04'0 0.0
2014-Dec-14 20:33N 49°18' W 123°04'0 0.1
2014-Dec-14 19:33N 49°18' W 123°04'0 0.1
2014-Dec-14 18:33N 49°18' W 123°04'0 0.0
2014-Dec-14 17:33N 49°18' W 123°04'0 0.0
2014-Dec-14 16:33N 49°18' W 123°04'0 0.0
2014-Dec-14 15:33N 49°18' W 123°04'0 0.0
2014-Dec-14 14:33N 49°18' W 123°04'0 0.1
2014-Dec-14 13:33N 49°18' W 123°04'0 0.0
2014-Dec-14 12:33N 49°18' W 123°04'0 0.0
2014-Dec-14 11:33N 49°18' W 123°04'0 0.0
2014-Dec-14 10:33N 49°18' W 123°04'0 0.0
2014-Dec-14 09:33N 49°18' W 123°04'0 0.1
2014-Dec-14 08:33N 49°18' W 123°04'0 0.1
2014-Dec-14 07:33N 49°18' W 123°04'0 0.0
2014-Dec-14 06:33N 49°18' W 123°04'0 0.2
2014-Dec-14 05:33N 49°18' W 123°04'0 0.0
2014-Dec-14 04:33N 49°18' W 123°04'0 0.0
2014-Dec-14 03:33N 49°18' W 123°04'0 0.0
2014-Dec-14 02:33N 49°18' W 123°04'0 0.1
2014-Dec-14 01:33N 49°18' W 123°04'0 0.0
2014-Dec-14 00:33N 49°18' W 123°04'0 0.0
2014-Dec-13 23:33N 49°18' W 123°04'0 0.0
2014-Dec-13 22:33N 49°18' W 123°04'0 0.0
2014-Dec-13 21:33N 49°18' W 123°04'  
Track history (hours):
 
Tides and Currents Weather Stations Pressure Air Temp Water Temp Dewpoint Dewpoint Depression Visibility Wind Speed Wind Dir Waves Ship Positions

Uni Wealth

Last reported at 2014-Dec-23 21:14 UTC. Time now 2015-Jan-25 03:56 UTC.
Position N 48°12' W 125°37'.
Warning: this ship's position is 32 days out of date.

Length 170 m; draft 9.9 m.

Type: Cargo ship. MMSI: 477621200.

Date/timePositionNaut miles runAvg speedWind from/ knotsBaromVisibWave heightAir tempDewpointWater temp
2014-Dec-23 21:14N 48°12' W 125°37'2511.6
2014-Dec-23 19:06N 48°26' W 125°06'711.5
2014-Dec-23 18:31N 48°31' W 125°00'1111.5
2014-Dec-23 17:33N 48°30' W 124°43'1312.8
2014-Dec-23 16:33N 48°26' W 124°25'1312.9
2014-Dec-23 15:33N 48°21' W 124°07'1212.4
2014-Dec-23 14:33N 48°17' W 123°49'1211.5
2014-Dec-23 13:31N 48°16' W 123°32'1010.3
2014-Dec-23 12:33N 48°23' W 123°22'7 7.5
2014-Dec-23 11:33N 48°27' W 123°12'1110.6
2014-Dec-23 10:33N 48°37' W 123°14'9 8.8
2014-Dec-23 09:33N 48°45' W 123°07'7 7.4
2014-Dec-23 08:33N 48°52' W 123°06'1212.3
2014-Dec-23 07:33N 49°00' W 123°19'1211.8
2014-Dec-23 06:33N 49°12' W 123°22'1111.1
2014-Dec-23 05:33N 49°19' W 123°09'2 1.8
2014-Dec-23 04:31N 49°18' W 123°06'0 0.0
2014-Dec-23 03:31N 49°18' W 123°06'0 0.0
2014-Dec-23 02:31N 49°18' W 123°06'0 0.0
2014-Dec-23 01:31N 49°18' W 123°06'0 0.1
2014-Dec-23 00:31N 49°18' W 123°06'0 0.0
2014-Dec-22 23:31N 49°18' W 123°06'0 0.0
2014-Dec-22 22:31N 49°18' W 123°06'0 0.0
2014-Dec-22 21:31N 49°18' W 123°06'0 0.0
2014-Dec-22 20:31N 49°18' W 123°06'0 0.0
2014-Dec-22 19:31N 49°18' W 123°06'0 0.1
2014-Dec-22 18:31N 49°18' W 123°06'0 0.0
2014-Dec-22 17:31N 49°18' W 123°06'0 0.1
2014-Dec-22 16:31N 49°18' W 123°06'0 0.1
2014-Dec-22 15:31N 49°18' W 123°06'0 0.1
2014-Dec-22 14:31N 49°18' W 123°06'0 0.1
2014-Dec-22 13:31N 49°18' W 123°06'0 0.0
2014-Dec-22 12:31N 49°18' W 123°06'0 0.0
2014-Dec-22 11:31N 49°18' W 123°06'0 0.2
2014-Dec-22 10:31N 49°18' W 123°06'0 0.2
2014-Dec-22 09:31N 49°18' W 123°06'0 0.1
2014-Dec-22 08:31N 49°18' W 123°06'0 0.0
2014-Dec-22 07:31N 49°18' W 123°06'0 0.0
2014-Dec-22 06:31N 49°18' W 123°06'0 0.0
2014-Dec-22 05:31N 49°18' W 123°06'1 1.2
2014-Dec-22 04:33N 49°18' W 123°05'1 0.8
2014-Dec-22 03:32N 49°18' W 123°04'0 0.0
2014-Dec-22 02:32N 49°18' W 123°04'0 0.0
2014-Dec-22 01:32N 49°18' W 123°04'0 0.0
2014-Dec-22 00:32N 49°18' W 123°04'0 0.0
2014-Dec-21 23:32N 49°18' W 123°04'0 0.0
2014-Dec-21 22:32N 49°18' W 123°04'0 0.0
2014-Dec-21 21:32N 49°18' W 123°04'0 0.0
2014-Dec-21 20:32N 49°18' W 123°04'0 0.0
2014-Dec-21 19:29N 49°18' W 123°04'0 0.0
2014-Dec-21 18:32N 49°18' W 123°04'0 0.0
2014-Dec-21 17:32N 49°18' W 123°04'0 0.0
2014-Dec-21 16:32N 49°18' W 123°04'0 0.0
2014-Dec-21 15:32N 49°18' W 123°04'0 0.0
2014-Dec-21 14:32N 49°18' W 123°04'0 0.0
2014-Dec-21 13:32N 49°18' W 123°04'0 0.0
2014-Dec-21 12:32N 49°18' W 123°04'0 0.0
2014-Dec-21 11:32N 49°18' W 123°04'0 0.0
2014-Dec-21 10:32N 49°18' W 123°04'0 0.0
2014-Dec-21 09:32N 49°18' W 123°04'0 0.0
2014-Dec-21 08:32N 49°18' W 123°04'0 0.0
2014-Dec-21 07:32N 49°18' W 123°04'0 0.0
2014-Dec-21 06:32N 49°18' W 123°04'0 0.0
2014-Dec-21 05:32N 49°18' W 123°04'0 0.0
2014-Dec-21 04:32N 49°18' W 123°04'0 0.0
2014-Dec-21 03:32N 49°18' W 123°04'0 0.0
2014-Dec-21 02:32N 49°18' W 123°04'0 0.0
2014-Dec-21 01:26N 49°18' W 123°04'0 0.0
2014-Dec-21 00:32N 49°18' W 123°04'0 0.0
2014-Dec-20 23:32N 49°18' W 123°04'0 0.0
2014-Dec-20 22:32N 49°18' W 123°04'0 0.0
2014-Dec-20 21:29N 49°18' W 123°04'0 0.0
2014-Dec-20 20:32N 49°18' W 123°04'0 0.0
2014-Dec-20 19:29N 49°18' W 123°04'0 0.0
2014-Dec-20 18:32N 49°18' W 123°04'0 0.0
2014-Dec-20 17:32N 49°18' W 123°04'0 0.0
2014-Dec-20 16:29N 49°18' W 123°04'0 0.0
2014-Dec-20 15:32N 49°18' W 123°04'0 0.0
2014-Dec-20 14:32N 49°18' W 123°04'0 0.0
2014-Dec-20 13:32N 49°18' W 123°04'0 0.0
2014-Dec-20 12:32N 49°18' W 123°04'0 0.0
2014-Dec-20 11:32N 49°18' W 123°04'0 0.0
2014-Dec-20 10:32N 49°18' W 123°04'0 0.0
2014-Dec-20 09:32N 49°18' W 123°04'0 0.0
2014-Dec-20 08:32N 49°18' W 123°04'0 0.0
2014-Dec-20 07:33N 49°18' W 123°04'0 0.0
2014-Dec-20 06:33N 49°18' W 123°04'0 0.0
2014-Dec-20 05:33N 49°18' W 123°04'0 0.0
2014-Dec-20 04:33N 49°18' W 123°04'0 0.0
2014-Dec-20 03:33N 49°18' W 123°04'0 0.0
2014-Dec-20 02:33N 49°18' W 123°04'0 0.0
2014-Dec-20 01:33N 49°18' W 123°04'0 0.0
2014-Dec-20 00:33N 49°18' W 123°04'0 0.0
2014-Dec-19 23:33N 49°18' W 123°04'1 0.9
2014-Dec-19 22:33N 49°18' W 123°05'4 4.2
2014-Dec-19 21:31N 49°18' W 123°12'0 0.0
2014-Dec-19 20:31N 49°18' W 123°12'0 0.0
2014-Dec-19 19:31N 49°18' W 123°12'0 0.1
2014-Dec-19 18:31N 49°18' W 123°11'0 0.0
2014-Dec-19 17:31N 49°18' W 123°11'0 0.0
2014-Dec-19 16:31N 49°18' W 123°11'0 0.0
2014-Dec-19 15:31N 49°18' W 123°11'0 0.3
2014-Dec-19 14:28N 49°18' W 123°12'0 0.0
2014-Dec-19 13:31N 49°18' W 123°12'0 0.0
2014-Dec-19 12:31N 49°18' W 123°12'0 0.0
2014-Dec-19 11:31N 49°18' W 123°12'0 0.1
2014-Dec-19 10:31N 49°18' W 123°12'0 0.1
2014-Dec-19 09:31N 49°18' W 123°12'0 0.0
2014-Dec-19 08:31N 49°18' W 123°12'0 0.2
2014-Dec-19 07:31N 49°18' W 123°12'0 0.0
2014-Dec-19 06:31N 49°18' W 123°12'0 0.2
2014-Dec-19 05:31N 49°18' W 123°12'0 0.1
2014-Dec-19 04:31N 49°18' W 123°12'0 0.0
2014-Dec-19 03:31N 49°18' W 123°12'0 0.0
2014-Dec-19 02:31N 49°18' W 123°12'0 0.0
2014-Dec-19 01:31N 49°18' W 123°12'0 0.0
2014-Dec-19 00:31N 49°18' W 123°12'0 0.0
2014-Dec-18 23:31N 49°18' W 123°12'0 0.0
2014-Dec-18 22:31N 49°18' W 123°12'0 0.1
2014-Dec-18 21:31N 49°18' W 123°12'0 0.0
2014-Dec-18 20:31N 49°18' W 123°12'0 0.0
2014-Dec-18 19:31N 49°18' W 123°12'0 0.0
2014-Dec-18 18:31N 49°18' W 123°12'0 0.0
2014-Dec-18 17:31N 49°18' W 123°12'0 0.0
2014-Dec-18 16:31N 49°18' W 123°12'0 0.0
2014-Dec-18 15:31N 49°18' W 123°12'0 0.0
2014-Dec-18 14:31N 49°18' W 123°12'0 0.1
2014-Dec-18 13:31N 49°18' W 123°12'0 0.0
2014-Dec-18 12:31N 49°18' W 123°12'0 0.1
2014-Dec-18 11:31N 49°18' W 123°11'0 0.0
2014-Dec-18 10:31N 49°18' W 123°11'0 0.0
2014-Dec-18 09:31N 49°18' W 123°11'0 0.0
2014-Dec-18 08:31N 49°18' W 123°11'0 0.0
2014-Dec-18 07:31N 49°18' W 123°11'0 0.0
2014-Dec-18 06:31N 49°18' W 123°11'0 0.0
2014-Dec-18 05:31N 49°18' W 123°11'0 0.1
2014-Dec-18 04:31N 49°18' W 123°11'0 0.1
2014-Dec-18 03:28N 49°18' W 123°11'0 0.1
2014-Dec-18 02:31N 49°18' W 123°12'0 0.0
2014-Dec-18 01:31N 49°18' W 123°12'0 0.0
2014-Dec-18 00:31N 49°18' W 123°12'0 0.0
2014-Dec-17 23:31N 49°18' W 123°12'0 0.0
2014-Dec-17 22:31N 49°18' W 123°12'0 0.0
2014-Dec-17 21:31N 49°18' W 123°12'0 0.1
2014-Dec-17 20:31N 49°18' W 123°11'0 0.0
2014-Dec-17 19:31N 49°18' W 123°11'0 0.0
2014-Dec-17 18:31N 49°18' W 123°11'0 0.0
2014-Dec-17 17:31N 49°18' W 123°11'0 0.0
2014-Dec-17 16:31N 49°18' W 123°11'0 0.0
2014-Dec-17 15:31N 49°18' W 123°11'0 0.1
2014-Dec-17 14:31N 49°18' W 123°11'3 3.5
2014-Dec-17 13:33N 49°18' W 123°06'1 1.5
2014-Dec-17 12:33N 49°18' W 123°04'0 0.1
2014-Dec-17 11:33N 49°18' W 123°04'0 0.1
2014-Dec-17 10:33N 49°18' W 123°04'0 0.0
2014-Dec-17 09:33N 49°18' W 123°04'0 0.0
2014-Dec-17 08:33N 49°18' W 123°04'0 0.1
2014-Dec-17 07:33N 49°18' W 123°04'0 0.0
2014-Dec-17 06:33N 49°18' W 123°04'0 0.1
2014-Dec-17 05:33N 49°18' W 123°04'0 0.1
2014-Dec-17 04:33N 49°18' W 123°04'0 0.0
2014-Dec-17 03:33N 49°18' W 123°04'0 0.0
2014-Dec-17 02:33N 49°18' W 123°04'0 0.0
2014-Dec-17 01:33N 49°18' W 123°04'0 0.0
2014-Dec-17 00:33N 49°18' W 123°04'0 0.0
2014-Dec-16 23:33N 49°18' W 123°04'0 0.0
2014-Dec-16 22:33N 49°18' W 123°04'0 0.0
2014-Dec-16 21:33N 49°18' W 123°04'0 0.0
2014-Dec-16 20:33N 49°18' W 123°04'0 0.1
2014-Dec-16 19:33N 49°18' W 123°04'0 0.0
2014-Dec-16 18:33N 49°18' W 123°04'0 0.1
2014-Dec-16 17:33N 49°18' W 123°04'0 0.2
2014-Dec-16 16:33N 49°18' W 123°04'0 0.1
2014-Dec-16 15:33N 49°18' W 123°04'0 0.0
2014-Dec-16 14:33N 49°18' W 123°04'0 0.0
2014-Dec-16 13:33N 49°18' W 123°04'0 0.0
2014-Dec-16 12:33N 49°18' W 123°04'0 0.1
2014-Dec-16 11:33N 49°18' W 123°04'0 0.0
2014-Dec-16 10:33N 49°18' W 123°04'0 0.0
2014-Dec-16 09:33N 49°18' W 123°04'0 0.1
2014-Dec-16 08:33N 49°18' W 123°04'0 0.0
2014-Dec-16 07:33N 49°18' W 123°04'0 0.0
2014-Dec-16 06:33N 49°18' W 123°04'0 0.0
2014-Dec-16 05:33N 49°18' W 123°04'0 0.0
2014-Dec-16 04:21N 49°18' W 123°04'0 0.0
2014-Dec-16 03:30N 49°18' W 123°04'0 0.0
2014-Dec-16 02:30N 49°18' W 123°04'0 0.1
2014-Dec-16 01:06N 49°18' W 123°04'0 0.0
2014-Dec-16 00:06N 49°18' W 123°04'0 0.0
2014-Dec-15 23:33N 49°18' W 123°04'0 0.0
2014-Dec-15 22:33N 49°18' W 123°04'0 0.0
2014-Dec-15 21:33N 49°18' W 123°04'0 0.1
2014-Dec-15 20:33N 49°18' W 123°04'0 0.1
2014-Dec-15 19:30N 49°18' W 123°04'0 0.0
2014-Dec-15 18:33N 49°18' W 123°04'0 0.0
2014-Dec-15 17:33N 49°18' W 123°04'0 0.0
2014-Dec-15 16:33N 49°18' W 123°04'0 0.0
2014-Dec-15 15:33N 49°18' W 123°04'0 0.1
2014-Dec-15 14:33N 49°18' W 123°04'0 0.1
2014-Dec-15 13:33N 49°18' W 123°04'0 0.0
2014-Dec-15 12:33N 49°18' W 123°04'0 0.0
2014-Dec-15 11:33N 49°18' W 123°04'0 0.0
2014-Dec-15 10:33N 49°18' W 123°04'0 0.0
2014-Dec-15 09:33N 49°18' W 123°04'0 0.0
2014-Dec-15 08:33N 49°18' W 123°04'0 0.1
2014-Dec-15 07:33N 49°18' W 123°04'0 0.1
2014-Dec-15 06:33N 49°18' W 123°04'0 0.0
2014-Dec-15 05:33N 49°18' W 123°04'0 0.0
2014-Dec-15 04:33N 49°18' W 123°04'0 0.1
2014-Dec-15 03:33N 49°18' W 123°04'0 0.0
2014-Dec-15 02:33N 49°18' W 123°04'0 0.1
2014-Dec-15 01:33N 49°18' W 123°04'0 0.1
2014-Dec-15 00:33N 49°18' W 123°04'0 0.0
2014-Dec-14 23:33N 49°18' W 123°04'0 0.0
2014-Dec-14 22:33N 49°18' W 123°04'0 0.0
2014-Dec-14 21:33N 49°18' W 123°04'0 0.0
2014-Dec-14 20:33N 49°18' W 123°04'0 0.1
2014-Dec-14 19:33N 49°18' W 123°04'0 0.1
2014-Dec-14 18:33N 49°18' W 123°04'0 0.0
2014-Dec-14 17:33N 49°18' W 123°04'0 0.0
2014-Dec-14 16:33N 49°18' W 123°04'0 0.0
2014-Dec-14 15:33N 49°18' W 123°04'0 0.0
2014-Dec-14 14:33N 49°18' W 123°04'0 0.1
2014-Dec-14 13:33N 49°18' W 123°04'0 0.0
2014-Dec-14 12:33N 49°18' W 123°04'0 0.0
2014-Dec-14 11:33N 49°18' W 123°04'0 0.0
2014-Dec-14 10:33N 49°18' W 123°04'0 0.0
2014-Dec-14 09:33N 49°18' W 123°04'0 0.1
2014-Dec-14 08:33N 49°18' W 123°04'0 0.1
2014-Dec-14 07:33N 49°18' W 123°04'0 0.0
2014-Dec-14 06:33N 49°18' W 123°04'0 0.2
2014-Dec-14 05:33N 49°18' W 123°04'0 0.0
2014-Dec-14 04:33N 49°18' W 123°04'0 0.0
2014-Dec-14 03:33N 49°18' W 123°04'0 0.0
2014-Dec-14 02:33N 49°18' W 123°04'0 0.1
2014-Dec-14 01:33N 49°18' W 123°04'0 0.0
2014-Dec-14 00:33N 49°18' W 123°04'0 0.0
2014-Dec-13 23:33N 49°18' W 123°04'0 0.0
2014-Dec-13 22:33N 49°18' W 123°04'0 0.0
2014-Dec-13 21:33N 49°18' W 123°04'  

Dump ship's entire track history